Time;durP1;ratioP1;P1;durP2;ratioP2;P2;SDS_P1;SDS_P2;PMS_P1;PMS_P2;Temp;Humidity;BMP_temperature;BMP_pressure;BME280_temperature;BME280_humidity;BME280_pressure;Samples;Min_cycle;Max_cycle;Signal;HPM_P1;HPM_P2
2021/08/13 00:00:36;;;;;;;17.60;10.35;;;22.20;71.90;;;21.34;69.22;96360.69;4959632;28;20517;-74
2021/08/13 00:03:01;;;;;;;15.65;10.75;;;22.20;72.00;;;21.36;69.46;96363.13;4914814;29;20520;-74
2021/08/13 00:05:27;;;;;;;24.88;10.77;;;22.20;72.10;;;21.37;69.59;96351.38;4950637;28;20066;-74
2021/08/13 00:07:53;;;;;;;14.98;10.55;;;22.10;72.20;;;21.35;69.57;96356.97;4932666;29;20035;-74
2021/08/13 00:10:19;;;;;;;15.73;10.63;;;22.10;72.50;;;21.34;70.04;96351.88;4947716;28;20164;-74
2021/08/13 00:12:44;;;;;;;16.50;10.45;;;22.20;72.30;;;21.38;69.83;96350.31;4931107;29;20039;-74
2021/08/13 00:15:10;;;;;;;18.52;12.13;;;22.30;72.10;;;21.36;69.69;96355.91;4939482;29;20042;-74
2021/08/13 00:17:36;;;;;;;18.63;11.73;;;22.20;72.30;;;21.32;69.82;96346.78;4936841;29;20090;-74
2021/08/13 00:20:02;;;;;;;17.95;11.65;;;22.20;72.10;;;21.31;69.72;96355.84;4949654;28;20772;-74
2021/08/13 00:22:28;;;;;;;17.90;12.20;;;22.10;72.20;;;21.31;69.58;96358.53;4946200;28;20043;-74
2021/08/13 00:24:54;;;;;;;17.63;10.95;;;22.20;72.40;;;21.29;70.08;96352.63;4949105;28;20126;-74
2021/08/13 00:27:19;;;;;;;18.90;12.50;;;22.10;72.50;;;21.27;70.46;96360.06;4948523;28;20070;-74
2021/08/13 00:29:45;;;;;;;22.83;12.52;;;22.00;72.60;;;21.19;70.46;96349.78;4915980;28;20035;-74
2021/08/13 00:32:11;;;;;;;15.73;11.35;;;22.10;72.80;;;21.19;69.99;96360.50;4913230;28;20043;-73
2021/08/13 00:34:38;;;;;;;20.63;11.13;;;22.00;72.90;;;21.13;69.93;96350.78;4930932;29;20059;-74
2021/08/13 00:37:04;;;;;;;16.75;11.13;;;22.00;72.90;;;21.12;70.17;96365.22;4931917;29;20051;-73
2021/08/13 00:39:30;;;;;;;19.50;10.68;;;22.00;73.10;;;21.09;70.51;96363.84;4967915;28;20031;-74
2021/08/13 00:41:56;;;;;;;14.35;11.10;;;22.00;73.10;;;21.07;70.26;96359.81;4938874;28;20058;-74
2021/08/13 00:44:21;;;;;;;20.00;11.93;;;21.90;73.20;;;21.06;70.91;96366.22;4933044;28;20032;-74
2021/08/13 00:46:47;;;;;;;16.73;11.20;;;21.90;73.20;;;21.04;71.62;96368.31;4957616;28;20031;-74
2021/08/13 00:49:13;;;;;;;15.50;11.60;;;21.80;73.50;;;21.04;70.38;96368.31;4934693;29;20388;-74
2021/08/13 00:51:38;;;;;;;18.13;11.30;;;21.90;73.50;;;21.05;71.36;96380.66;4920936;29;20710;-74
2021/08/13 00:54:04;;;;;;;15.82;11.23;;;21.90;73.60;;;21.05;71.57;96377.97;4932919;28;20031;-73
2021/08/13 00:56:30;;;;;;;18.15;11.43;;;21.90;73.90;;;21.00;71.04;96375.22;4945221;28;20078;-73
2021/08/13 00:58:56;;;;;;;18.48;10.73;;;21.90;74.00;;;21.00;71.24;96378.72;4963215;28;20407;-74
2021/08/13 01:01:21;;;;;;;14.35;11.25;;;21.90;74.10;;;20.98;71.49;96391.53;4935196;29;20041;-74
2021/08/13 01:03:47;;;;;;;17.85;11.75;;;21.90;74.20;;;20.96;72.13;96387.47;4947936;28;20061;-74
2021/08/13 01:06:15;;;;;;;19.65;12.90;;;21.80;74.30;;;20.93;72.55;96387.97;4931706;28;20123;-73
2021/08/13 01:08:41;;;;;;;16.17;11.90;;;21.80;74.60;;;20.88;72.18;96387.91;4929545;29;20043;-74
2021/08/13 01:11:43;;;;;;;16.30;11.70;;;21.70;74.90;;;20.83;73.52;96385.97;4924903;28;20095;-74
2021/08/13 01:14:31;;;;;;;17.92;11.63;;;21.70;74.90;;;20.78;72.98;96394.72;4960873;28;20047;-73
2021/08/13 01:16:57;;;;;;;17.08;11.48;;;21.60;75.10;;;20.72;72.25;96398.38;4955686;28;20384;-73
2021/08/13 01:20:04;;;;;;;21.80;12.55;;;21.60;75.20;;;20.71;74.41;96402.13;4943572;28;20035;-74
2021/08/13 01:22:36;;;;;;;17.63;11.57;;;21.60;75.20;;;20.65;72.96;96413.78;4943864;28;20059;-74
2021/08/13 01:25:03;;;;;;;15.68;11.93;;;21.50;75.50;;;20.62;73.13;96416.97;4931581;29;20070;-73
2021/08/13 01:27:35;;;;;;;17.95;10.93;;;21.50;75.50;;;20.59;73.53;96430.78;4947287;28;20040;-74
2021/08/13 01:30:10;;;;;;;14.07;10.25;;;21.50;75.50;;;20.53;74.02;96447.81;4948833;28;20035;-74
2021/08/13 01:33:04;;;;;;;15.20;11.18;;;21.30;76.00;;;20.46;74.75;96469.34;4943032;28;20036;-73
2021/08/13 01:35:37;;;;;;;18.83;10.80;;;21.30;76.20;;;20.37;74.36;96478.78;4942151;28;20035;-74
2021/08/13 01:38:11;;;;;;;13.60;10.68;;;21.30;76.30;;;20.32;74.78;96473.34;4942978;28;20032;-73
2021/08/13 01:40:39;;;;;;;14.40;10.70;;;21.20;76.50;;;20.25;74.81;96466.53;4914057;29;20036;-74
2021/08/13 01:43:05;;;;;;;12.63;10.63;;;21.00;77.00;;;20.19;74.46;96463.78;4917131;29;20035;-74
2021/08/13 01:45:34;;;;;;;15.80;10.68;;;21.00;77.20;;;20.14;75.51;96455.69;4950977;28;20121;-74
2021/08/13 01:48:01;;;;;;;16.40;10.97;;;21.00;77.40;;;20.11;74.94;96450.81;4942502;29;20113;-74
2021/08/13 01:50:26;;;;;;;13.38;10.88;;;21.00;77.40;;;20.10;74.36;96459.06;4916580;28;20094;-73
2021/08/13 01:52:54;;;;;;;15.85;11.35;;;21.00;77.40;;;20.07;74.73;96444.34;4934676;29;20110;-73
2021/08/13 01:55:20;;;;;;;15.05;11.63;;;21.00;77.60;;;20.04;74.77;96439.47;4938923;29;20062;-74
2021/08/13 01:57:46;;;;;;;16.38;11.82;;;20.90;77.80;;;20.00;75.88;96438.34;4953757;28;20487;-73
2021/08/13 02:00:16;;;;;;;17.70;12.27;;;20.80;78.10;;;19.97;75.79;96433.47;4966956;28;20450;-74
2021/08/13 02:02:42;;;;;;;20.25;12.50;;;20.80;78.00;;;19.87;75.23;96436.75;4965829;28;20118;-74
2021/08/13 02:05:09;;;;;;;17.50;11.98;;;20.70;77.80;;;19.79;75.80;96441.69;4937617;28;20043;-74
2021/08/13 02:07:37;;;;;;;16.88;12.07;;;20.60;77.70;;;19.77;74.82;96438.44;4933413;29;20038;-74
2021/08/13 02:10:05;;;;;;;15.55;11.85;;;20.60;77.10;;;19.75;75.98;96437.88;4949827;28;20040;-74
2021/08/13 02:12:30;;;;;;;14.50;12.32;;;20.60;77.30;;;19.69;74.83;96436.13;4961483;28;20056;-73
2021/08/13 02:14:56;;;;;;;19.58;12.80;;;20.50;77.70;;;19.63;75.17;96447.78;4946454;28;20085;-73
2021/08/13 02:17:22;;;;;;;13.85;11.68;;;20.50;77.80;;;19.63;75.24;96448.56;4929275;29;20031;-74
2021/08/13 02:20:08;;;;;;;16.17;11.35;;;20.50;77.80;;;19.63;76.73;96453.91;4952018;28;20697;-74
2021/08/13 02:22:34;;;;;;;14.60;12.25;;;20.50;77.90;;;19.55;76.35;96452.44;4933708;29;20039;-74
2021/08/13 02:25:00;;;;;;;16.00;12.45;;;20.40;78.20;;;19.52;75.33;96455.56;4935071;28;20050;-74
2021/08/13 02:27:26;;;;;;;14.40;11.45;;;20.40;78.60;;;19.53;75.97;96451.88;4950499;28;20071;-74
2021/08/13 02:29:53;;;;;;;13.45;11.60;;;20.40;78.50;;;19.47;77.06;96454.66;4934386;29;20082;-74
2021/08/13 02:32:19;;;;;;;15.77;11.75;;;20.30;79.00;;;19.40;76.13;96452.09;4931262;28;20039;-73
2021/08/13 02:34:45;;;;;;;23.10;13.80;;;20.30;78.90;;;19.43;76.59;96454.28;4954013;28;20063;-73
2021/08/13 02:37:35;;;;;;;17.90;13.25;;;20.40;78.80;;;19.45;78.41;96452.19;4933503;29;20502;-74
2021/08/13 02:40:22;;;;;;;19.83;13.32;;;20.30;79.00;;;19.41;77.03;96453.72;4959024;28;20102;-74
2021/08/13 02:42:57;;;;;;;18.27;13.43;;;20.30;79.20;;;19.40;77.87;96449.44;4958045;28;20035;-74
2021/08/13 02:45:23;;;;;;;20.10;14.55;;;20.40;79.20;;;19.38;76.91;96451.53;4936506;29;20042;-74
2021/08/13 02:47:51;;;;;;;21.17;13.82;;;20.30;79.40;;;19.39;77.06;96447.81;4930155;29;20039;-74
2021/08/13 02:50:16;;;;;;;16.67;12.68;;;20.30;79.30;;;19.37;76.98;96435.75;4945861;28;20452;-73
2021/08/13 02:52:55;;;;;;;19.45;13.50;;;20.30;79.50;;;19.37;77.79;96443.75;4949636;28;20035;-73
2021/08/13 02:55:33;;;;;;;15.35;12.95;;;20.30;79.40;;;19.37;78.48;96436.56;4934391;28;20059;-73
2021/08/13 02:57:59;;;;;;;17.85;12.93;;;20.30;79.30;;;19.38;77.00;96437.38;4932432;28;20541;-74
2021/08/13 03:00:25;;;;;;;16.35;12.55;;;20.30;79.30;;;19.35;77.78;96436.00;4936488;28;20047;-73
2021/08/13 03:02:50;;;;;;;16.23;12.43;;;20.30;79.50;;;19.36;77.42;96432.28;4916494;29;20522;-74
2021/08/13 03:05:19;;;;;;;15.63;12.88;;;20.30;79.40;;;19.37;77.46;96435.75;4933622;28;20139;-73
2021/08/13 03:07:44;;;;;;;20.40;14.43;;;20.30;79.70;;;19.36;78.43;96439.47;4916320;29;20031;-74
2021/08/13 03:10:10;;;;;;;16.60;13.02;;;20.30;80.30;;;19.38;78.62;96435.50;4963528;28;20058;-73
2021/08/13 03:12:37;;;;;;;14.98;13.38;;;20.40;80.10;;;19.39;78.03;96439.00;4949726;28;20527;-73
2021/08/13 03:15:03;;;;;;;15.50;12.52;;;20.40;79.90;;;19.37;77.87;96441.09;4949057;28;20047;-74
2021/08/13 03:17:29;;;;;;;17.13;13.15;;;20.30;80.50;;;19.37;78.22;96441.09;4956368;28;20149;-74
2021/08/13 03:19:55;;;;;;;19.05;12.80;;;20.30;80.50;;;19.37;78.18;96444.56;4934389;29;20035;-74
2021/08/13 03:22:20;;;;;;;15.63;13.00;;;20.30;80.50;;;19.40;78.62;96454.75;4931342;28;20059;-74
2021/08/13 03:24:47;;;;;;;14.15;12.18;;;20.40;80.50;;;19.40;79.63;96460.09;4930024;29;20071;-73
2021/08/13 03:27:14;;;;;;;17.13;12.45;;;20.30;80.80;;;19.34;79.59;96457.56;4924994;29;20551;-73
2021/08/13 03:29:39;;;;;;;16.38;12.32;;;20.20;81.50;;;19.29;80.15;96468.94;4943532;28;20439;-74
2021/08/13 03:32:05;;;;;;;12.55;11.18;;;20.10;81.90;;;19.28;79.24;96454.00;4915357;28;20063;-73
2021/08/13 03:34:31;;;;;;;16.40;11.95;;;20.10;81.90;;;19.26;79.45;96464.09;4949470;28;20046;-73
2021/08/13 03:37:01;;;;;;;14.45;12.05;;;20.10;81.80;;;19.27;79.99;96455.84;4914825;28;20035;-74
2021/08/13 03:39:26;;;;;;;15.73;12.03;;;20.20;81.90;;;19.28;79.51;96451.31;4945797;28;20043;-73
2021/08/13 03:41:52;;;;;;;14.85;11.48;;;20.30;81.50;;;19.26;80.29;96446.22;4947218;28;20066;-73
2021/08/13 03:44:18;;;;;;;14.13;11.20;;;20.30;81.20;;;19.34;79.59;96454.91;4917256;28;20082;-73
2021/08/13 03:46:44;;;;;;;19.67;10.50;;;20.40;80.90;;;19.37;79.36;96460.56;4935522;28;20215;-73
2021/08/13 03:49:09;;;;;;;12.70;10.85;;;20.40;80.60;;;19.37;80.06;96447.22;4941611;28;20054;-74
2021/08/13 03:51:35;;;;;;;13.18;10.35;;;20.40;80.40;;;19.41;79.44;96455.56;4963794;28;20046;-75
2021/08/13 03:54:01;;;;;;;11.75;9.82;;;20.40;80.20;;;19.45;79.94;96457.53;4932701;28;20373;-75
2021/08/13 03:56:27;;;;;;;14.02;10.65;;;20.40;80.10;;;19.45;79.87;96457.53;4958339;28;20135;-72
2021/08/13 03:58:52;;;;;;;11.57;10.40;;;20.40;80.10;;;19.46;78.40;96464.50;4946789;28;20086;-68
2021/08/13 04:01:18;;;;;;;12.57;10.32;;;20.40;80.00;;;19.50;79.19;96465.66;4962489;28;20526;-68
2021/08/13 04:03:44;;;;;;;14.38;10.38;;;20.50;79.80;;;19.52;79.04;96474.22;4947771;28;20452;-71
2021/08/13 04:06:10;;;;;;;12.77;10.18;;;20.60;79.50;;;19.54;78.77;96476.69;4944225;28;20071;-71
2021/08/13 04:08:35;;;;;;;11.30;9.57;;;20.60;79.70;;;19.55;79.02;96479.13;4942640;28;20095;-70
2021/08/13 04:11:01;;;;;;;13.90;10.90;;;20.60;79.50;;;19.56;78.85;96485.28;4938202;28;20414;-71
2021/08/13 04:13:27;;;;;;;21.35;16.58;;;20.60;79.50;;;19.57;78.21;96487.69;4963309;28;20436;-71
2021/08/13 04:15:53;;;;;;;17.30;12.18;;;20.60;79.40;;;19.58;78.63;96483.97;4932870;28;20043;-71
2021/08/13 04:18:18;;;;;;;12.80;10.80;;;20.60;79.30;;;19.61;79.17;96492.56;4955878;28;20051;-71
2021/08/13 04:20:44;;;;;;;16.05;12.02;;;20.60;79.10;;;19.60;77.81;96490.94;4941829;28;20462;-71
2021/08/13 04:23:10;;;;;;;12.63;11.32;;;20.60;79.30;;;19.57;78.45;96479.69;4954486;28;20601;-71
2021/08/13 04:25:36;;;;;;;13.32;10.07;;;20.60;79.20;;;19.56;79.38;96482.59;4949707;28;20062;-71
2021/08/13 04:28:01;;;;;;;11.02;9.90;;;20.60;79.20;;;19.56;78.03;96490.59;4940597;28;20039;-72
2021/08/13 04:30:27;;;;;;;11.98;10.77;;;20.60;79.00;;;19.55;78.53;96487.13;4930052;28;20063;-72
2021/08/13 04:32:53;;;;;;;13.32;10.73;;;20.60;79.20;;;19.51;78.41;96488.63;4929446;28;20067;-72
2021/08/13 04:35:19;;;;;;;11.82;10.45;;;20.50;79.40;;;19.53;77.85;96497.22;4947131;28;20050;-72
2021/08/13 04:37:44;;;;;;;13.60;10.45;;;20.60;79.20;;;19.54;78.93;96500.72;4925479;28;20460;-72
2021/08/13 04:40:10;;;;;;;12.52;10.55;;;20.60;79.20;;;19.54;78.40;96493.50;4946516;28;20039;-71
2021/08/13 04:42:36;;;;;;;14.00;10.35;;;20.70;79.00;;;19.52;78.55;96500.91;4921783;29;20472;-71
2021/08/13 04:45:02;;;;;;;12.63;10.10;;;20.60;79.30;;;19.51;77.85;96501.16;4926421;29;20067;-71
2021/08/13 04:47:28;;;;;;;12.15;9.48;;;20.60;79.30;;;19.53;78.86;96505.25;4914827;29;20040;-73
2021/08/13 04:49:53;;;;;;;13.98;10.27;;;20.60;79.10;;;19.53;78.45;96501.72;4931112;28;20054;-72
2021/08/13 04:52:20;;;;;;;12.68;10.40;;;20.60;79.10;;;19.53;78.72;96504.41;4942572;28;20048;-72
2021/08/13 04:54:49;;;;;;;12.40;9.98;;;20.60;79.10;;;19.57;79.30;96511.72;4946308;28;20562;-72
2021/08/13 04:57:15;;;;;;;15.35;9.93;;;20.70;78.90;;;19.60;78.13;96513.09;4916049;29;20175;-71
2021/08/13 04:59:41;;;;;;;13.40;9.73;;;20.70;78.90;;;19.64;78.41;96508.09;4934980;28;20028;-71
2021/08/13 05:02:07;;;;;;;11.63;9.40;;;20.80;78.70;;;19.70;78.55;96515.19;4914818;29;20044;-73
2021/08/13 05:04:32;;;;;;;12.05;10.32;;;20.90;78.60;;;19.75;78.17;96509.94;4922610;29;20063;-74
2021/08/13 05:06:58;;;;;;;11.63;10.35;;;20.90;78.00;;;19.78;78.87;96506.78;4912774;29;20373;-72
2021/08/13 05:09:24;;;;;;;11.25;9.35;;;21.00;78.00;;;19.84;78.49;96497.84;4921537;29;20032;-74
2021/08/13 05:11:50;;;;;;;12.93;9.60;;;21.10;78.10;;;19.89;78.63;96503.25;4922360;28;20063;-71
2021/08/13 05:14:15;;;;;;;13.65;9.88;;;21.10;77.20;;;19.93;78.20;96501.75;4915120;29;20036;-73
2021/08/13 05:16:41;;;;;;;12.82;9.52;;;21.20;76.60;;;19.99;77.38;96500.81;4910929;29;20485;-72
2021/08/13 05:19:07;;;;;;;11.25;9.07;;;21.30;76.60;;;20.05;77.73;96502.50;4931083;29;20095;-70
2021/08/13 05:21:37;;;;;;;12.13;9.95;;;21.40;76.40;;;20.13;77.35;96512.00;4937941;28;20033;-69
2021/08/13 05:24:04;;;;;;;13.40;10.95;;;21.50;76.50;;;20.17;77.29;96508.63;4935876;29;20114;-77
2021/08/13 05:26:29;;;;;;;11.40;9.32;;;21.60;76.50;;;20.22;77.80;96507.91;4944539;28;20040;-76
2021/08/13 05:28:55;;;;;;;11.05;8.95;;;21.60;76.40;;;20.26;77.26;96510.91;4941297;28;20090;-67
2021/08/13 05:31:21;;;;;;;13.07;9.65;;;21.60;76.50;;;20.28;76.86;96508.81;4932171;29;20043;-75
2021/08/13 05:33:47;;;;;;;10.65;8.98;;;21.60;76.20;;;20.31;76.33;96517.13;4923320;29;20074;-76
2021/08/13 05:36:16;;;;;;;13.02;9.40;;;21.70;76.40;;;20.37;77.30;96518.88;4951296;28;20047;-74
2021/08/13 05:38:41;;;;;;;13.70;10.02;;;21.70;75.30;;;20.39;76.27;96518.63;4965463;28;20028;-74
2021/08/13 05:41:07;;;;;;;10.73;9.15;;;21.80;75.10;;;20.43;76.16;96527.81;4966336;28;20757;-76
2021/08/13 05:43:33;;;;;;;13.65;10.95;;;21.80;74.10;;;20.49;75.41;96533.00;4944715;28;20473;-77
2021/08/13 05:45:59;;;;;;;10.65;8.55;;;21.90;74.10;;;20.50;75.91;96533.81;4948123;28;20579;-81
2021/08/13 05:48:24;;;;;;;13.90;8.70;;;22.00;73.60;;;20.64;74.94;96534.31;4939257;28;20058;-73
2021/08/13 05:50:50;;;;;;;11.60;8.23;;;22.10;72.70;;;20.75;74.42;96542.25;4949699;28;20075;-73
2021/08/13 05:53:16;;;;;;;12.07;10.80;;;22.30;72.20;;;20.84;75.02;96539.19;4937266;28;20031;-74
2021/08/13 05:55:41;;;;;;;11.88;9.05;;;22.50;72.10;;;20.94;73.87;96544.69;4909583;28;1067695;-75
2021/08/13 05:58:07;;;;;;;10.50;8.95;;;22.50;71.40;;;21.02;74.23;96536.25;4961537;28;20043;-75
2021/08/13 06:00:33;;;;;;;20.90;16.63;;;22.60;71.70;;;21.13;73.69;96550.63;4920625;29;20439;-73
2021/08/13 06:03:00;;;;;;;10.40;9.18;;;22.60;71.50;;;21.20;73.70;96546.72;4935755;28;20809;-72
2021/08/13 06:05:26;;;;;;;10.65;8.40;;;22.80;71.20;;;21.30;73.35;96546.09;4942424;28;20032;-77
2021/08/13 06:07:52;;;;;;;11.18;8.20;;;22.90;70.70;;;21.40;73.63;96560.41;4917390;29;20138;-74
2021/08/13 06:10:19;;;;;;;13.68;9.18;;;23.10;70.70;;;21.49;73.51;96557.31;4945513;28;20047;-72
2021/08/13 06:12:45;;;;;;;12.93;8.52;;;23.20;70.60;;;21.59;72.98;96562.81;4936448;29;20123;-77
2021/08/13 06:15:11;;;;;;;13.45;7.88;;;23.30;70.30;;;21.62;72.61;96562.31;4920591;29;20062;-76
2021/08/13 06:17:37;;;;;;;11.63;8.15;;;23.10;70.30;;;21.68;73.30;96561.31;4936209;28;20039;-75
2021/08/13 06:20:04;;;;;;;15.40;8.13;;;23.30;70.50;;;21.75;72.71;96563.84;4950864;28;20069;-69
2021/08/13 06:22:29;;;;;;;10.60;7.93;;;23.30;70.10;;;21.84;72.18;96562.34;4942278;28;20059;-73
2021/08/13 06:24:55;;;;;;;10.35;7.78;;;23.50;70.30;;;21.95;73.23;96556.03;4967390;28;20456;-71
2021/08/13 06:27:21;;;;;;;10.55;8.07;;;23.60;70.20;;;22.06;73.26;96557.81;4953581;28;20532;-73
2021/08/13 06:29:47;;;;;;;9.93;7.07;;;23.90;70.20;;;22.19;72.83;96556.63;4944084;28;20039;-73
2021/08/13 06:32:13;;;;;;;10.88;6.65;;;24.00;69.50;;;22.29;72.47;96554.88;4951437;28;20056;-75
2021/08/13 06:34:38;;;;;;;9.25;7.28;;;24.00;69.60;;;22.41;72.31;96559.28;4952310;28;20069;-72
2021/08/13 06:37:04;;;;;;;8.02;7.10;;;24.20;68.80;;;22.51;72.55;96560.19;4954550;28;20043;-71
2021/08/13 06:39:30;;;;;;;11.60;8.75;;;24.30;69.60;;;22.62;71.41;96561.88;4967381;28;20510;-73
2021/08/13 06:41:55;;;;;;;10.25;7.05;;;24.40;68.60;;;22.73;71.45;96554.75;4965066;28;20069;-72
2021/08/13 06:44:21;;;;;;;10.35;6.63;;;24.50;68.20;;;22.83;71.01;96562.09;4950987;28;20039;-71
2021/08/13 06:46:47;;;;;;;9.88;7.05;;;24.60;68.20;;;22.97;71.05;96562.50;4969969;28;20047;-70
2021/08/13 06:49:12;;;;;;;8.63;6.55;;;24.70;68.20;;;23.08;71.08;96577.59;4953664;28;20027;-69
2021/08/13 06:51:38;;;;;;;10.32;6.28;;;24.90;67.70;;;23.19;71.11;96572.06;4950639;28;20039;-75
2021/08/13 06:54:04;;;;;;;11.35;7.43;;;25.00;67.10;;;23.34;70.82;96582.13;4938192;28;20535;-74
2021/08/13 06:56:30;;;;;;;10.95;7.07;;;25.20;67.00;;;23.47;70.41;96580.84;4965223;28;20379;-74
2021/08/13 06:58:58;;;;;;;10.30;6.65;;;25.50;66.60;;;23.62;70.02;96578.28;4951727;28;20055;-72
2021/08/13 07:01:24;;;;;;;11.95;6.38;;;25.60;65.70;;;23.73;69.71;96582.66;4939190;29;20058;-72
2021/08/13 07:03:50;;;;;;;11.00;6.35;;;25.70;65.30;;;23.90;69.50;96587.03;4967642;28;20039;-71
2021/08/13 07:06:15;;;;;;;11.10;6.60;;;25.90;64.50;;;24.05;69.00;96589.81;4952152;28;20039;-79
2021/08/13 07:08:41;;;;;;;8.93;5.95;;;26.10;64.50;;;24.26;68.62;96588.00;4950563;28;20771;-72
2021/08/13 07:11:07;;;;;;;8.60;5.75;;;26.40;63.30;;;24.41;68.89;96596.13;4945586;28;21000;-72
2021/08/13 07:13:32;;;;;;;7.45;5.78;;;26.50;62.90;;;24.58;68.38;96587.84;4946614;28;20087;-76
2021/08/13 07:15:58;;;;;;;9.18;6.10;;;26.60;63.10;;;24.71;67.67;96590.03;4950289;28;20692;-76
2021/08/13 07:18:24;;;;;;;9.00;6.32;;;26.70;63.00;;;24.84;67.91;96594.06;4950903;28;20065;-75
2021/08/13 07:20:50;;;;;;;11.23;5.80;;;26.80;62.60;;;24.92;67.21;96602.44;4931867;28;20107;-75
2021/08/13 07:23:15;;;;;;;8.18;5.88;;;26.80;62.70;;;24.99;67.13;96604.88;4946791;28;20510;-75
2021/08/13 07:25:41;;;;;;;12.80;5.50;;;26.80;63.30;;;25.02;67.14;96605.16;4964283;28;20032;-73
2021/08/13 07:28:07;;;;;;;8.93;6.20;;;26.90;63.40;;;25.11;66.67;96605.41;4946398;28;20083;-71
2021/08/13 07:30:32;;;;;;;9.57;6.30;;;27.00;62.20;;;25.20;66.00;96605.72;4965652;28;20054;-73
2021/08/13 07:32:58;;;;;;;9.07;5.60;;;27.00;59.80;;;25.30;65.73;96611.06;4950779;28;20078;-70
2021/08/13 07:35:24;;;;;;;8.40;6.20;;;27.30;60.40;;;25.43;65.22;96594.38;4955786;28;20035;-68
2021/08/13 07:37:50;;;;;;;7.65;5.90;;;27.50;59.60;;;25.56;64.73;96601.88;4950756;29;20035;-70
2021/08/13 07:40:15;;;;;;;10.30;5.85;;;27.70;59.40;;;25.71;64.09;96603.78;4950566;28;20031;-76
2021/08/13 07:42:41;;;;;;;9.65;5.70;;;27.80;58.20;;;25.83;63.77;96598.91;4941670;28;20056;-74
2021/08/13 07:45:09;;;;;;;8.82;5.57;;;27.90;57.10;;;25.98;63.44;96595.34;4944995;28;20040;-74
2021/08/13 07:47:35;;;;;;;10.18;5.32;;;28.20;58.20;;;26.13;63.01;96610.69;4954328;28;20031;-72
2021/08/13 07:50:00;;;;;;;7.70;5.32;;;28.30;57.10;;;26.25;62.89;96612.00;4966550;28;20041;-75
2021/08/13 07:52:26;;;;;;;7.93;5.22;;;28.60;57.00;;;26.44;62.81;96608.69;4960720;28;20063;-73
2021/08/13 07:54:52;;;;;;;13.77;5.90;;;28.70;56.10;;;26.52;62.01;96600.81;4934902;28;20121;-72
2021/08/13 07:57:18;;;;;;;11.93;5.72;;;28.60;54.80;;;26.63;61.62;96598.88;4964119;28;20039;-74
2021/08/13 07:59:44;;;;;;;8.52;5.65;;;28.70;55.00;;;26.77;61.26;96591.78;4948050;28;20031;-74
2021/08/13 08:02:09;;;;;;;9.35;5.85;;;29.00;54.40;;;26.91;60.78;96596.53;4949335;28;20039;-74
2021/08/13 08:04:37;;;;;;;10.02;5.78;;;29.10;53.90;;;27.05;60.78;96597.53;4933644;28;20477;-74
2021/08/13 08:07:03;;;;;;;11.77;5.30;;;29.40;54.50;;;27.21;60.21;96596.34;4918733;29;20035;-72
2021/08/13 08:09:28;;;;;;;8.00;5.57;;;29.50;53.00;;;27.40;59.02;96589.16;4930071;28;20202;-68
2021/08/13 08:11:54;;;;;;;10.18;5.10;;;29.90;52.10;;;27.55;59.12;96595.50;4963619;28;20669;-77
2021/08/13 08:14:20;;;;;;;7.85;5.65;;;29.90;51.60;;;27.69;58.76;96594.56;4946029;28;20036;-74
2021/08/13 08:16:46;;;;;;;5.43;4.75;;;30.20;51.80;;;27.90;57.98;96597.06;4955659;28;20075;-75
2021/08/13 08:19:12;;;;;;;8.95;5.00;;;30.50;51.30;;;28.02;57.95;96592.03;4944521;28;20086;-74
2021/08/13 08:21:38;;;;;;;7.18;4.85;;;30.60;50.80;;;28.22;57.67;96593.72;4917864;28;20117;-74
2021/08/13 08:24:04;;;;;;;8.85;5.45;;;30.80;49.00;;;28.35;57.12;96603.88;4946439;28;20095;-76
2021/08/13 08:26:29;;;;;;;8.45;4.78;;;31.00;49.70;;;28.55;56.99;96608.22;4942169;28;20047;-74
2021/08/13 08:28:55;;;;;;;8.35;5.90;;;31.20;49.40;;;28.73;56.08;96609.28;4935563;29;20046;-76
2021/08/13 08:31:21;;;;;;;6.18;4.97;;;31.40;48.10;;;28.87;56.18;96605.59;4956013;28;20043;-74
2021/08/13 08:33:47;;;;;;;7.90;5.57;;;31.50;47.10;;;29.01;55.11;96610.28;4973193;28;20079;-74
2021/08/13 08:36:12;;;;;;;9.68;5.53;;;31.70;48.10;;;29.12;54.62;96607.13;4974243;28;20043;-72
2021/08/13 08:38:38;;;;;;;7.10;5.28;;;31.80;46.50;;;29.26;54.73;96613.41;4946202;29;20166;-73
2021/08/13 08:41:05;;;;;;;9.85;5.68;;;32.00;47.20;;;29.44;54.32;96613.66;4952099;28;20051;-74
2021/08/13 08:43:30;;;;;;;9.35;5.60;;;32.30;45.80;;;29.61;53.80;96618.53;4973814;28;20395;-73
2021/08/13 08:45:56;;;;;;;10.68;5.53;;;32.30;45.30;;;29.77;53.68;96622.59;4955003;28;20122;-73
2021/08/13 08:48:22;;;;;;;7.93;5.57;;;32.60;45.40;;;29.96;53.43;96620.59;4949056;28;20023;-72
2021/08/13 08:50:48;;;;;;;8.02;5.43;;;32.90;45.20;;;30.15;52.54;96626.78;4931602;29;20590;-74
2021/08/13 08:53:20;;;;;;;10.57;4.97;;;33.10;44.70;;;30.28;52.04;96610.78;4945142;28;20546;-75
2021/08/13 08:55:46;;;;;;;7.55;5.22;;;33.10;44.80;;;30.46;51.75;96618.00;4933444;29;20561;-75
2021/08/13 08:58:12;;;;;;;9.20;5.80;;;33.40;43.50;;;30.58;51.30;96614.78;4957189;28;20044;-72
2021/08/13 09:00:37;;;;;;;8.02;5.30;;;33.50;42.90;;;30.75;50.21;96620.41;4911885;29;20040;-72
2021/08/13 09:03:03;;;;;;;9.55;5.07;;;33.60;41.40;;;30.87;49.60;96626.13;4926203;28;20050;-75
2021/08/13 09:05:29;;;;;;;9.25;4.93;;;33.70;41.30;;;31.01;49.42;96618.72;4975967;28;20072;-76
2021/08/13 09:07:55;;;;;;;8.00;5.70;;;34.00;41.70;;;31.16;49.18;96616.75;4948522;28;20036;-78
2021/08/13 09:10:21;;;;;;;5.57;4.88;;;34.20;41.80;;;31.40;48.70;96625.44;4931614;28;20039;-78
2021/08/13 09:12:48;;;;;;;7.15;4.68;;;34.60;40.90;;;31.59;48.46;96617.06;4922130;28;20036;-71
2021/08/13 09:15:31;;;;;;;8.38;5.00;;;34.60;40.50;;;31.80;46.93;96615.47;4949429;28;20090;-74
2021/08/13 09:18:25;;;;;;;8.60;4.88;;;35.00;40.60;;;32.09;45.54;96617.66;4927317;29;20385;-75
2021/08/13 09:20:58;;;;;;;7.05;4.82;;;35.30;39.90;;;32.25;45.27;96605.22;4933065;28;20032;-80
2021/08/13 09:23:44;;;;;;;9.98;5.40;;;35.50;38.20;;;32.47;44.12;96609.81;4948100;28;20083;-77
2021/08/13 09:26:13;;;;;;;8.40;5.15;;;35.60;38.70;;;32.66;45.67;96612.25;4961608;28;20392;-75
2021/08/13 09:28:57;;;;;;;7.28;4.70;;;35.80;37.70;;;32.88;43.69;96608.63;4942820;28;20043;-72
2021/08/13 09:31:34;;;;;;;6.82;4.63;;;36.10;37.30;;;33.05;41.95;96603.19;4944696;28;20039;-71
2021/08/13 09:34:10;;;;;;;8.82;5.82;;;36.10;36.30;;;33.30;42.00;96598.81;4931944;29;20087;-68
2021/08/13 09:36:50;;;;;;;7.78;4.50;;;36.50;35.90;;;33.48;40.93;96599.59;4946142;28;20030;-68
2021/08/13 09:39:16;;;;;;;6.82;4.90;;;36.60;35.00;;;33.64;42.44;96608.09;4959212;28;20036;-70
2021/08/13 09:41:50;;;;;;;6.18;4.40;;;36.80;34.50;;;33.83;40.73;96600.31;4945810;28;20075;-68
2021/08/13 09:44:30;;;;;;;5.53;4.03;;;37.20;35.00;;;34.05;40.37;96597.38;4963444;28;20035;-69
2021/08/13 09:47:00;;;;;;;7.28;4.30;;;37.50;34.30;;;34.25;39.68;96592.31;4954722;28;20027;-71
2021/08/13 09:49:31;;;;;;;10.10;4.40;;;37.70;33.50;;;34.45;39.89;96591.59;4964954;28;20090;-69
2021/08/13 09:52:12;;;;;;;6.10;4.10;;;37.90;33.90;;;34.64;39.12;96586.47;4929889;29;20058;-74
2021/08/13 09:54:38;;;;;;;5.68;3.92;;;38.10;33.30;;;34.84;41.02;96586.78;4931735;29;20504;-73
2021/08/13 09:57:08;;;;;;;6.25;3.97;;;38.40;33.30;;;35.08;38.87;96584.25;4916422;29;20059;-74
2021/08/13 09:59:34;;;;;;;6.85;3.92;;;38.50;32.10;;;35.24;39.35;96593.41;4949027;28;20082;-72
2021/08/13 10:01:59;;;;;;;8.43;3.90;;;38.70;32.00;;;35.42;39.00;96593.28;4943770;28;20547;-73
2021/08/13 10:04:33;;;;;;;10.23;3.90;;;39.10;31.00;;;35.59;35.62;96595.84;4969246;28;20042;-74
2021/08/13 10:06:58;;;;;;;4.68;2.67;;;39.20;29.60;;;35.73;37.06;96592.78;4938793;28;20368;-74
2021/08/13 10:09:26;;;;;;;5.88;2.33;;;39.00;27.90;;;35.82;35.78;96601.69;4965695;28;20066;-74
2021/08/13 10:12:02;;;;;;;7.07;2.40;;;39.10;27.80;;;35.92;33.73;96605.94;4933092;29;20393;-74